createdAt,value
2022-08-14T00:02:27.242Z,100328.59
2022-08-14T00:07:25.123Z,100325.75
2022-08-14T00:12:24.134Z,100314.31
2022-08-14T00:17:21.416Z,100324.38
2022-08-14T00:22:44.691Z,100313.38
2022-08-14T00:27:38.098Z,100316.44
2022-08-14T00:33:02.033Z,100319.25
2022-08-14T00:37:51.639Z,100322.16
2022-08-14T00:42:54.821Z,100315.31
2022-08-14T00:47:52.789Z,100317.09
2022-08-14T00:52:51.145Z,100309.09
2022-08-14T00:58:08.823Z,100318.69
2022-08-14T01:03:08.308Z,100327.22
2022-08-14T01:08:06.531Z,100327.00
2022-08-14T01:13:25.752Z,100330.41
2022-08-14T01:19:01.460Z,100342.72
2022-08-14T01:23:59.958Z,100341.50
2022-08-14T01:28:59.337Z,100336.88
2022-08-14T01:35:15.991Z,100334.66
2022-08-14T01:39:14.915Z,100338.00
2022-08-14T01:44:32.242Z,100342.44
2022-08-14T01:49:35.568Z,100339.63
2022-08-14T01:54:38.243Z,100345.81
2022-08-14T01:59:37.838Z,100346.00
2022-08-14T02:04:55.638Z,100339.44
2022-08-14T02:09:55.997Z,100336.53
2022-08-14T02:15:00.546Z,100334.06
2022-08-14T02:19:58.683Z,100333.47
2022-08-14T02:24:56.099Z,100333.31
2022-08-14T02:29:56.221Z,100335.06
2022-08-14T02:34:56.497Z,100341.19
2022-08-14T02:39:58.123Z,100337.06
2022-08-14T02:44:54.856Z,100340.66
2022-08-14T02:49:56.778Z,100335.00
2022-08-14T02:54:53.764Z,100341.56
2022-08-14T02:59:51.520Z,100339.75
2022-08-14T03:04:49.170Z,100336.84
2022-08-14T03:10:25.491Z,100314.78
2022-08-14T03:15:13.749Z,100325.28
2022-08-14T03:20:12.781Z,100335.16
2022-08-14T03:25:11.615Z,100343.22
2022-08-14T03:30:14.293Z,100350.44
2022-08-14T03:35:11.479Z,100338.38
2022-08-14T03:40:12.013Z,100344.13
2022-08-14T03:45:19.260Z,100343.22
2022-08-14T03:50:27.953Z,100346.72
2022-08-14T03:55:28.351Z,100343.50
2022-08-14T04:00:41.032Z,100347.78
2022-08-14T04:05:43.501Z,100350.78
2022-08-14T04:10:45.941Z,100350.84
2022-08-14T04:15:56.122Z,100350.38
2022-08-14T04:20:58.832Z,100351.66
2022-08-14T04:25:55.445Z,100338.34
2022-08-14T04:30:52.724Z,100348.31
2022-08-14T04:35:57.169Z,100343.91
2022-08-14T04:41:12.173Z,100345.72
2022-08-14T04:46:11.929Z,100343.03
2022-08-14T04:51:28.198Z,100337.66
2022-08-14T04:56:30.732Z,100341.53
2022-08-14T05:01:39.564Z,100333.16
2022-08-14T05:06:39.880Z,100338.53
2022-08-14T05:11:36.922Z,100329.09
2022-08-14T05:16:34.395Z,100330.59
2022-08-14T05:22:00.516Z,100331.53
2022-08-14T05:26:47.952Z,100329.94
2022-08-14T05:31:45.365Z,100326.81
2022-08-14T05:36:42.598Z,100326.13
2022-08-14T05:41:53.792Z,100319.00
2022-08-14T05:46:51.524Z,100314.47
2022-08-14T05:51:51.707Z,100322.16
2022-08-14T05:56:48.323Z,100327.19
2022-08-14T06:01:45.052Z,100326.63
2022-08-14T06:06:44.171Z,100323.69
2022-08-14T06:11:40.791Z,100319.00
2022-08-14T06:16:40.519Z,100313.00
2022-08-14T06:21:40.521Z,100305.84
2022-08-14T06:26:39.055Z,100302.38
2022-08-14T06:31:37.766Z,100306.22
2022-08-14T06:36:38.214Z,100299.41
2022-08-14T06:41:57.481Z,100299.59
2022-08-14T06:46:53.729Z,100298.78
2022-08-14T06:51:51.232Z,100293.09
2022-08-14T06:56:54.186Z,100290.03
2022-08-14T07:02:13.731Z,100285.47
2022-08-14T07:07:15.505Z,100289.19
2022-08-14T07:12:54.681Z,100291.69
2022-08-14T07:17:32.198Z,100286.06
2022-08-14T07:22:50.094Z,100286.03
2022-08-14T07:27:48.392Z,100280.41
2022-08-14T07:32:46.421Z,100279.75
2022-08-14T07:37:46.938Z,100290.13
2022-08-14T07:42:44.658Z,100288.50
2022-08-14T07:47:43.465Z,100283.13
2022-08-14T07:52:40.344Z,100277.09
2022-08-14T07:57:40.749Z,100284.53
2022-08-14T08:02:38.723Z,100280.53
2022-08-14T08:07:39.206Z,100292.88
2022-08-14T08:12:36.197Z,100285.16
2022-08-14T08:17:38.626Z,100275.81
2022-08-14T08:22:43.382Z,100279.91
2022-08-14T08:27:53.953Z,100280.06
2022-08-14T08:32:53.773Z,100256.09
2022-08-14T08:38:01.051Z,100254.53
2022-08-14T08:42:59.087Z,100244.38
2022-08-14T08:47:56.689Z,100239.16
2022-08-14T08:52:54.947Z,100224.19
2022-08-14T08:57:55.399Z,100222.16
2022-08-14T09:02:56.953Z,100215.31
2022-08-14T09:07:56.591Z,100206.34
2022-08-14T09:12:55.563Z,100205.41
2022-08-14T09:17:52.587Z,100196.19
2022-08-14T09:22:53.315Z,100205.44
2022-08-14T09:27:52.004Z,100199.19
2022-08-14T09:32:59.139Z,100186.69
2022-08-14T09:38:25.750Z,100188.56
2022-08-14T09:43:29.177Z,100156.13
2022-08-14T09:48:31.087Z,100144.03
2022-08-14T09:54:12.704Z,100144.88
2022-08-14T09:58:58.359Z,100143.66
2022-08-14T10:03:56.448Z,100144.69
2022-08-14T10:09:00.078Z,100156.66
2022-08-14T10:14:01.838Z,100157.78
2022-08-14T10:19:04.704Z,100163.00
2022-08-14T10:24:08.327Z,100157.47
2022-08-14T10:29:19.232Z,100161.22
2022-08-14T10:34:20.465Z,100185.13
2022-08-14T10:39:26.913Z,100193.44
2022-08-14T10:44:32.625Z,100185.41
2022-08-14T10:49:29.902Z,100187.56
2022-08-14T10:54:36.055Z,100184.97
2022-08-14T10:59:43.205Z,100184.69
2022-08-14T11:04:40.404Z,100173.53
2022-08-14T11:09:41.831Z,100174.16
2022-08-14T11:14:39.962Z,100159.47
2022-08-14T11:19:38.809Z,100156.75
2022-08-14T11:24:55.401Z,100148.56
2022-08-14T11:30:00.372Z,100139.44
2022-08-14T11:34:57.747Z,100142.59
2022-08-14T11:39:54.429Z,100130.59
2022-08-14T11:44:53.816Z,100117.53
2022-08-14T11:49:55.464Z,100123.38
2022-08-14T11:54:57.363Z,100154.00
2022-08-14T12:00:00.694Z,100162.63
2022-08-14T12:04:59.513Z,100171.13
2022-08-14T12:09:56.897Z,100174.88
2022-08-14T12:14:56.109Z,100218.97
2022-08-14T12:19:56.495Z,100268.59
2022-08-14T12:24:54.438Z,100312.66
2022-08-14T12:29:52.156Z,100293.53
2022-08-14T12:34:53.111Z,100316.34
2022-08-14T12:39:51.871Z,100288.22
2022-08-14T12:44:50.035Z,100265.47
2022-08-14T12:49:51.875Z,100276.44
2022-08-14T12:55:06.576Z,100346.66
2022-08-14T13:00:22.969Z,100359.63
2022-08-14T13:05:23.471Z,100378.19
2022-08-14T13:10:47.145Z,100380.72
2022-08-14T13:15:40.204Z,100347.28
2022-08-14T13:20:37.557Z,100343.63
2022-08-14T13:25:37.216Z,100323.84
2022-08-14T13:30:33.937Z,100309.50
2022-08-14T13:35:31.346Z,100293.41
2022-08-14T13:40:29.299Z,100287.25
2022-08-14T13:45:33.829Z,100283.69
2022-08-14T13:50:44.924Z,100272.47
2022-08-14T13:55:42.205Z,100270.66
2022-08-14T14:00:52.957Z,100252.09
2022-08-14T14:05:54.329Z,100241.47
2022-08-14T14:10:53.163Z,100238.69
2022-08-14T14:15:58.377Z,100225.59
2022-08-14T14:20:57.409Z,100228.00
2022-08-14T14:25:57.470Z,100226.03
2022-08-14T14:30:57.142Z,100220.75
2022-08-14T14:35:54.750Z,100207.78
2022-08-14T14:41:00.815Z,100179.06
2022-08-14T14:45:57.992Z,100179.94
2022-08-14T14:50:56.412Z,100171.28
2022-08-14T14:56:50.489Z,100174.44
2022-08-14T15:01:13.819Z,100171.22
2022-08-14T15:06:11.280Z,100162.97
2022-08-14T15:11:14.965Z,100203.13
2022-08-14T15:16:12.137Z,100213.25
2022-08-14T15:21:09.905Z,100217.22
2022-08-14T15:26:07.180Z,100222.03
2022-08-14T15:31:05.306Z,100226.34
2022-08-14T15:36:05.632Z,100212.84
2022-08-14T15:41:24.110Z,100213.25
2022-08-14T15:46:41.206Z,100202.44
2022-08-14T15:51:42.306Z,100204.97
2022-08-14T15:56:42.865Z,100209.16
2022-08-14T16:01:53.364Z,100205.16
2022-08-14T16:06:54.696Z,100195.50
2022-08-14T16:11:53.786Z,100186.81
2022-08-14T16:16:59.874Z,100198.50
2022-08-14T16:22:57.250Z,100209.16
2022-08-14T16:27:33.732Z,100193.53
2022-08-14T16:32:36.216Z,100212.16
2022-08-14T16:37:49.107Z,100207.66
2022-08-14T16:43:04.396Z,100206.03
2022-08-14T16:48:55.298Z,100199.16
2022-08-14T16:53:25.970Z,100203.63
2022-08-14T16:58:29.769Z,100232.75
2022-08-14T17:03:28.558Z,100245.28
2022-08-14T17:08:46.386Z,100245.50
2022-08-14T17:14:00.682Z,100224.53
2022-08-14T17:19:01.517Z,100214.53
2022-08-14T17:24:00.496Z,100206.78
2022-08-14T17:29:04.244Z,100192.41
2022-08-14T17:34:03.144Z,100186.84
2022-08-14T17:39:06.799Z,100197.25
2022-08-14T17:44:11.924Z,100202.91
2022-08-14T17:49:14.262Z,100204.69
2022-08-14T17:54:15.379Z,100182.19
2022-08-14T17:59:20.798Z,100192.03
2022-08-14T18:04:28.504Z,100176.56
2022-08-14T18:09:26.061Z,100198.09
2022-08-14T18:14:33.049Z,100192.78
2022-08-14T18:19:36.250Z,100199.16
2022-08-14T18:24:39.840Z,100206.97
2022-08-14T18:29:42.535Z,100208.94
2022-08-14T18:34:50.986Z,100204.34
2022-08-14T18:40:02.740Z,100203.88
2022-08-14T18:45:12.569Z,100208.47
2022-08-14T18:50:26.035Z,100210.38
2022-08-14T18:55:53.342Z,100226.63
2022-08-14T19:00:54.192Z,100234.53
2022-08-14T19:05:58.405Z,100234.53
2022-08-14T19:10:57.670Z,100236.16
2022-08-14T19:16:06.904Z,100232.50
2022-08-14T19:21:13.498Z,100237.81
2022-08-14T19:26:36.150Z,100242.75
2022-08-14T19:31:42.428Z,100238.72
2022-08-14T19:37:04.804Z,100244.34
2022-08-14T19:42:02.732Z,100240.13
2022-08-14T19:47:11.446Z,100245.19
2022-08-14T19:52:20.927Z,100237.75
2022-08-14T19:57:18.864Z,100231.28
2022-08-14T20:02:24.174Z,100234.22
2022-08-14T20:08:00.122Z,100238.81
2022-08-14T20:12:57.765Z,100248.56
2022-08-14T20:17:54.917Z,100254.75
2022-08-14T20:22:52.756Z,100238.63
2022-08-14T20:27:58.680Z,100241.66
2022-08-14T20:32:57.143Z,100249.63
2022-08-14T20:38:00.067Z,100250.78
2022-08-14T20:43:36.013Z,100249.44
2022-08-14T20:48:53.096Z,100246.03
2022-08-14T20:53:57.023Z,100237.16
2022-08-14T20:58:53.709Z,100239.00
2022-08-14T21:03:57.342Z,100238.94
2022-08-14T21:08:57.070Z,100234.94
2022-08-14T21:14:24.994Z,100224.59
2022-08-14T21:19:16.469Z,100198.09
2022-08-14T21:24:38.614Z,100206.53
2022-08-14T21:29:33.726Z,100193.06
2022-08-14T21:34:32.629Z,100195.63
2022-08-14T21:39:29.584Z,100201.97
2022-08-14T21:44:43.005Z,100186.91
2022-08-14T21:49:43.160Z,100184.81
2022-08-14T21:54:49.795Z,100194.84
2022-08-14T21:59:47.146Z,100203.28
2022-08-14T22:04:48.665Z,100208.34
2022-08-14T22:09:54.758Z,100204.38
2022-08-14T22:14:51.903Z,100208.31
2022-08-14T22:19:55.257Z,100211.44
2022-08-14T22:24:59.771Z,100225.75
2022-08-14T22:29:57.751Z,100222.94
2022-08-14T22:34:56.115Z,100233.91
2022-08-14T22:40:57.469Z,100241.94
2022-08-14T22:45:11.730Z,100245.88
2022-08-14T22:50:30.697Z,100251.00
2022-08-14T22:55:27.297Z,100256.25
2022-08-14T23:00:25.401Z,100246.13
2022-08-14T23:05:38.925Z,100272.22
2022-08-14T23:10:46.289Z,100282.63
2022-08-14T23:15:44.996Z,100287.69
2022-08-14T23:20:44.257Z,100281.47
2022-08-14T23:25:59.866Z,100281.47
2022-08-14T23:30:57.818Z,100280.66
2022-08-14T23:35:59.190Z,100275.00
2022-08-14T23:40:57.417Z,100276.13
2022-08-14T23:45:57.860Z,100265.00
2022-08-14T23:50:54.519Z,100270.94
2022-08-14T23:55:54.691Z,100267.00
